Time;durP1;ratioP1;P1;durP2;ratioP2;P2;SDS_P1;SDS_P2;PMS_P1;PMS_P2;Temp;Humidity;BMP_temperature;BMP_pressure;BME280_temperature;BME280_humidity;BME280_pressure;Samples;Min_cycle;Max_cycle;Signal;HPM_P1;HPM_P2
2023/06/16 00:01:06;;;;;;;21.15;14.70;;;21.90;99.90;;;;;;5027911;28;20034;-73
2023/06/16 00:03:35;;;;;;;21.27;15.00;;;21.90;99.90;;;;;;5028362;28;20026;-73
2023/06/16 00:06:03;;;;;;;20.75;15.18;;;21.90;99.90;;;;;;5027855;28;20033;-73
2023/06/16 00:08:31;;;;;;;21.23;15.00;;;21.90;99.90;;;;;;5013287;28;20376;-73
2023/06/16 00:10:58;;;;;;;20.55;15.20;;;21.90;99.90;;;;;;5027916;28;20017;-73
2023/06/16 00:13:24;;;;;;;18.58;15.23;;;21.80;99.90;;;;;;5028487;28;20029;-73
2023/06/16 00:15:50;;;;;;;20.20;15.07;;;21.80;99.90;;;;;;5012307;28;20038;-73
2023/06/16 00:18:17;;;;;;;23.98;15.60;;;21.80;99.90;;;;;;5012674;28;20060;-73
2023/06/16 00:20:43;;;;;;;18.33;15.48;;;21.80;99.90;;;;;;5028014;28;20037;-73
2023/06/16 00:23:09;;;;;;;19.30;15.27;;;21.70;99.90;;;;;;5013101;28;20037;-73
2023/06/16 00:25:35;;;;;;;22.08;15.48;;;21.70;99.90;;;;;;5012371;28;20420;-73
2023/06/16 00:28:01;;;;;;;20.00;15.80;;;21.60;99.90;;;;;;5012937;28;20391;-73
2023/06/16 00:30:27;;;;;;;18.35;14.23;;;21.50;99.90;;;;;;5012202;28;20044;-73
2023/06/16 00:32:54;;;;;;;19.48;14.68;;;21.50;99.90;;;;;;5012714;28;20026;-73
2023/06/16 00:35:20;;;;;;;18.30;14.32;;;21.50;99.90;;;;;;5012416;28;20478;-73
2023/06/16 00:37:46;;;;;;;24.08;15.68;;;21.50;99.90;;;;;;5008358;28;20046;-73
2023/06/16 00:40:12;;;;;;;21.60;15.30;;;21.50;99.90;;;;;;4993010;28;20031;-73
2023/06/16 00:42:38;;;;;;;21.08;15.15;;;21.50;99.90;;;;;;5011807;28;20049;-73
2023/06/16 00:45:05;;;;;;;22.27;16.30;;;21.50;99.90;;;;;;5012345;28;20030;-73
2023/06/16 00:47:31;;;;;;;23.20;15.52;;;21.50;99.90;;;;;;5007081;28;20030;-73
2023/06/16 00:49:57;;;;;;;18.60;15.85;;;21.50;99.90;;;;;;4991902;28;20035;-73
2023/06/16 00:52:25;;;;;;;20.13;14.90;;;21.40;99.90;;;;;;5009479;28;20030;-72
2023/06/16 00:54:52;;;;;;;21.75;16.40;;;21.40;99.90;;;;;;5027248;28;20033;-73
2023/06/16 00:57:18;;;;;;;20.15;15.68;;;21.40;99.90;;;;;;5027000;28;20041;-73
2023/06/16 00:59:45;;;;;;;22.10;15.88;;;21.40;99.90;;;;;;5012797;28;20042;-73
2023/06/16 01:02:13;;;;;;;18.45;14.52;;;21.30;99.90;;;;;;5026717;28;20030;-73
2023/06/16 01:04:40;;;;;;;21.67;15.20;;;21.30;99.90;;;;;;5011116;28;20037;-73
2023/06/16 01:07:11;;;;;;;22.52;16.70;;;21.20;99.90;;;;;;5027311;28;20030;-72
2023/06/16 01:09:40;;;;;;;;;;;21.10;99.90;;;;;;5028074;28;20041;-73
2023/06/16 01:12:11;;;;;;;23.65;15.85;;;21.00;99.90;;;;;;5012036;28;19916;-72
2023/06/16 01:14:45;;;;;;;22.00;15.90;;;21.00;99.90;;;;;;5027561;28;20030;-73
2023/06/16 01:17:11;;;;;;;19.90;16.38;;;21.00;99.90;;;;;;5026388;28;20042;-73
2023/06/16 01:19:42;;;;;;;19.80;16.33;;;20.90;99.90;;;;;;5027676;28;20502;-73
2023/06/16 01:22:26;;;;;;;21.42;15.63;;;21.00;99.90;;;;;;5026609;28;20029;-73
2023/06/16 01:24:54;;;;;;;25.00;16.48;;;21.00;99.90;;;;;;5026833;28;20038;-73
2023/06/16 01:27:21;;;;;;;27.30;16.77;;;21.00;99.90;;;;;;5026953;28;20529;-73
2023/06/16 01:29:48;;;;;;;20.63;16.27;;;21.00;99.90;;;;;;5027360;28;20037;-72
2023/06/16 01:32:16;;;;;;;21.73;16.30;;;21.00;99.90;;;;;;5026397;28;20046;-73
2023/06/16 01:34:42;;;;;;;22.33;16.80;;;21.10;99.90;;;;;;5011083;28;20033;-73
2023/06/16 01:37:08;;;;;;;21.40;15.88;;;21.10;99.90;;;;;;4995379;28;20029;-72
2023/06/16 01:39:34;;;;;;;23.17;16.45;;;21.10;99.90;;;;;;5007628;28;20041;-73
2023/06/16 01:42:00;;;;;;;21.52;16.85;;;21.00;99.90;;;;;;5010373;28;20045;-73
2023/06/16 01:44:27;;;;;;;21.52;17.10;;;21.00;99.90;;;;;;5011127;28;20042;-73
2023/06/16 01:46:54;;;;;;;25.15;17.17;;;21.00;99.90;;;;;;5026367;28;20038;-73
2023/06/16 01:49:20;;;;;;;20.52;16.75;;;21.00;99.90;;;;;;4975203;28;20380;-73
2023/06/16 01:51:46;;;;;;;21.92;15.75;;;20.90;99.90;;;;;;5003970;28;20037;-73
2023/06/16 01:54:12;;;;;;;25.25;16.30;;;21.00;99.90;;;;;;5012096;28;20053;-73
2023/06/16 01:56:38;;;;;;;26.73;16.60;;;21.00;99.90;;;;;;5010653;28;20045;-74
2023/06/16 01:59:04;;;;;;;21.88;15.25;;;20.90;99.90;;;;;;5026570;28;20499;-73
2023/06/16 02:01:37;;;;;;;24.55;17.17;;;21.00;99.90;;;;;;5003948;28;20038;-73
2023/06/16 02:04:15;;;;;;;23.90;16.55;;;20.90;99.90;;;;;;4986497;28;20464;-73
2023/06/16 02:06:58;;;;;;;22.25;15.73;;;20.90;99.90;;;;;;4986631;28;20034;-73
2023/06/16 02:09:25;;;;;;;18.55;15.52;;;20.80;99.90;;;;;;5007716;28;20098;-73
2023/06/16 02:11:52;;;;;;;22.67;17.38;;;20.80;99.90;;;;;;4992932;28;20061;-73
2023/06/16 02:14:18;;;;;;;21.10;16.30;;;20.90;99.90;;;;;;4993397;28;20029;-73
2023/06/16 02:16:44;;;;;;;22.58;16.70;;;20.80;99.90;;;;;;4988399;28;20038;-73
2023/06/16 02:19:11;;;;;;;24.33;17.50;;;20.80;99.90;;;;;;4989817;28;20050;-73
2023/06/16 02:21:41;;;;;;;23.65;16.73;;;20.80;99.90;;;;;;5001241;28;20026;-73
2023/06/16 02:24:08;;;;;;;25.15;16.83;;;20.70;99.90;;;;;;4993159;28;20042;-73
2023/06/16 02:26:35;;;;;;;27.10;17.95;;;20.70;99.90;;;;;;4994031;28;20034;-73
2023/06/16 02:29:01;;;;;;;22.25;17.77;;;20.70;99.90;;;;;;5009469;28;20034;-73
2023/06/16 02:31:27;;;;;;;24.65;18.35;;;20.70;99.90;;;;;;5020001;28;20022;-73
2023/06/16 02:33:54;;;;;;;25.60;18.05;;;20.70;99.90;;;;;;4996358;28;20049;-73
2023/06/16 02:36:21;;;;;;;29.70;18.80;;;20.60;99.90;;;;;;5002870;28;20042;-73
2023/06/16 02:38:47;;;;;;;24.33;17.73;;;20.70;99.90;;;;;;4997669;28;20510;-73
2023/06/16 02:41:13;;;;;;;26.27;16.13;;;20.70;99.90;;;;;;5010619;28;20030;-73
2023/06/16 02:43:39;;;;;;;23.88;16.02;;;20.70;99.90;;;;;;5003936;28;20395;-73
2023/06/16 02:46:06;;;;;;;23.92;17.80;;;20.70;99.90;;;;;;4977421;28;20039;-73
2023/06/16 02:48:32;;;;;;;23.38;16.70;;;20.70;99.90;;;;;;5009954;28;20399;-73
2023/06/16 02:50:58;;;;;;;22.73;16.98;;;20.70;99.90;;;;;;4994570;28;20026;-73
2023/06/16 02:53:25;;;;;;;21.20;16.92;;;20.70;99.90;;;;;;4994987;28;20353;-73
2023/06/16 02:55:51;;;;;;;26.42;16.73;;;20.60;99.90;;;;;;5009780;28;20502;-72
2023/06/16 02:58:18;;;;;;;21.25;16.17;;;20.70;99.90;;;;;;5010008;28;20087;-73
2023/06/16 03:00:44;;;;;;;21.40;15.80;;;20.60;99.90;;;;;;5014885;28;20045;-73
2023/06/16 03:03:10;;;;;;;21.52;16.55;;;20.60;99.90;;;;;;5014313;28;20029;-73
2023/06/16 03:05:36;;;;;;;22.63;18.10;;;20.60;99.90;;;;;;5045735;28;20049;-73
2023/06/16 03:08:03;;;;;;;22.20;17.52;;;20.50;99.90;;;;;;5014430;28;20101;-73
2023/06/16 03:10:29;;;;;;;23.38;16.08;;;20.50;99.90;;;;;;5013887;28;20042;-73
2023/06/16 03:12:55;;;;;;;26.15;17.65;;;20.50;99.90;;;;;;5012931;28;20045;-73
2023/06/16 03:15:26;;;;;;;23.55;16.65;;;20.50;99.90;;;;;;5013462;28;20030;-73
2023/06/16 03:17:52;;;;;;;22.15;17.58;;;20.40;99.90;;;;;;5028143;28;20034;-73
2023/06/16 03:20:19;;;;;;;24.38;18.30;;;20.40;99.90;;;;;;5013573;28;20369;-73
2023/06/16 03:22:45;;;;;;;25.23;17.67;;;20.40;99.90;;;;;;5014096;28;20030;-73
2023/06/16 03:25:12;;;;;;;22.83;18.73;;;20.40;99.90;;;;;;5013855;28;20044;-73
2023/06/16 03:27:40;;;;;;;27.92;18.40;;;20.40;99.90;;;;;;5014122;28;20463;-73
2023/06/16 03:30:08;;;;;;;30.13;18.80;;;20.40;99.90;;;;;;5028547;28;20482;-73
2023/06/16 03:32:35;;;;;;;28.73;17.95;;;20.40;99.90;;;;;;5027893;28;20390;-72
2023/06/16 03:35:04;;;;;;;22.65;17.88;;;20.30;99.90;;;;;;5014456;28;20041;-73
2023/06/16 03:37:34;;;;;;;27.23;18.83;;;20.30;99.90;;;;;;5013312;28;20034;-73
2023/06/16 03:40:05;;;;;;;24.40;18.98;;;20.30;99.90;;;;;;5013850;28;20491;-73
2023/06/16 03:42:32;;;;;;;;;;;20.40;99.90;;;;;;5013788;28;20052;-73
2023/06/16 03:44:58;;;;;;;26.80;18.67;;;20.30;99.90;;;;;;5013708;28;19914;-73
2023/06/16 03:47:24;;;;;;;22.95;17.55;;;20.40;99.90;;;;;;4993937;28;20034;-73
2023/06/16 03:49:50;;;;;;;21.90;17.75;;;20.30;99.90;;;;;;4974547;28;20055;-73
2023/06/16 03:52:16;;;;;;;28.88;19.20;;;20.30;99.90;;;;;;4987963;28;20041;-73
2023/06/16 03:54:42;;;;;;;24.90;18.55;;;20.30;99.90;;;;;;5008936;28;20031;-73
2023/06/16 03:57:08;;;;;;;24.00;19.00;;;20.30;99.90;;;;;;4993764;28;20037;-72
2023/06/16 03:59:35;;;;;;;27.60;18.83;;;20.30;99.90;;;;;;4993794;28;20046;-73
2023/06/16 04:02:07;;;;;;;23.55;19.65;;;20.30;99.90;;;;;;5008709;28;20478;-73
2023/06/16 04:04:33;;;;;;;30.90;19.25;;;20.30;99.90;;;;;;5027992;28;20040;-73
2023/06/16 04:07:02;;;;;;;26.98;19.80;;;20.30;99.90;;;;;;5028290;28;20034;-73
2023/06/16 04:09:30;;;;;;;25.52;19.67;;;20.20;99.90;;;;;;5013311;28;20030;-73
2023/06/16 04:11:56;;;;;;;25.90;20.83;;;20.20;99.90;;;;;;5012959;28;20021;-73
2023/06/16 04:14:23;;;;;;;32.75;20.90;;;20.20;99.90;;;;;;5028250;28;20033;-73
2023/06/16 04:16:49;;;;;;;30.75;21.67;;;20.20;99.90;;;;;;5027288;28;20034;-73
2023/06/16 04:19:15;;;;;;;27.55;21.45;;;20.20;99.90;;;;;;5012934;28;20038;-73
2023/06/16 04:21:41;;;;;;;28.38;22.42;;;20.10;99.90;;;;;;5012799;28;20030;-73
2023/06/16 04:24:08;;;;;;;29.98;22.02;;;20.00;99.90;;;;;;5013036;28;20041;-73
2023/06/16 04:26:34;;;;;;;35.38;22.65;;;20.10;99.90;;;;;;5028011;28;20033;-72
2023/06/16 04:29:03;;;;;;;31.30;22.95;;;20.10;99.90;;;;;;5011631;28;20049;-73
2023/06/16 04:31:30;;;;;;;31.77;22.02;;;20.10;99.90;;;;;;5011277;28;20506;-73
2023/06/16 04:33:57;;;;;;;36.67;23.67;;;20.10;99.90;;;;;;5027829;28;20033;-73
2023/06/16 04:36:29;;;;;;;28.15;22.10;;;20.00;99.90;;;;;;5027168;28;20069;-72
2023/06/16 04:38:56;;;;;;;31.33;22.73;;;20.10;99.90;;;;;;5012818;28;20037;-73
2023/06/16 04:41:23;;;;;;;31.10;21.98;;;20.10;99.90;;;;;;5012574;28;20027;-73
2023/06/16 04:43:49;;;;;;;30.00;21.88;;;20.10;99.90;;;;;;5027677;28;20026;-73
2023/06/16 04:46:15;;;;;;;29.15;21.08;;;20.10;99.90;;;;;;5026967;28;20124;-73
2023/06/16 04:48:41;;;;;;;27.55;21.17;;;20.10;99.90;;;;;;5012236;28;20050;-73
2023/06/16 04:51:08;;;;;;;23.83;20.10;;;20.10;99.90;;;;;;5011137;28;20042;-73
2023/06/16 04:53:36;;;;;;;30.38;22.20;;;20.10;99.90;;;;;;5027925;28;20054;-73
2023/06/16 04:56:02;;;;;;;31.42;22.88;;;20.10;99.90;;;;;;5012125;28;20046;-73
2023/06/16 04:58:29;;;;;;;31.55;24.48;;;20.10;99.90;;;;;;5012439;28;20487;-73
2023/06/16 05:00:55;;;;;;;30.92;24.15;;;20.10;99.90;;;;;;5011610;28;20049;-73
2023/06/16 05:03:21;;;;;;;35.97;24.88;;;20.00;99.90;;;;;;5012471;28;20030;-73
2023/06/16 05:05:47;;;;;;;30.75;25.30;;;20.00;99.90;;;;;;5027351;28;20493;-72
2023/06/16 05:08:13;;;;;;;32.47;25.42;;;19.90;99.90;;;;;;5012425;28;20034;-73
2023/06/16 05:10:40;;;;;;;30.35;24.83;;;20.00;99.90;;;;;;5027422;28;20038;-72
2023/06/16 05:13:06;;;;;;;32.53;24.00;;;19.90;99.90;;;;;;5012394;28;20049;-72
2023/06/16 05:15:32;;;;;;;40.03;26.55;;;19.90;99.90;;;;;;5011335;28;20038;-73
2023/06/16 05:17:59;;;;;;;39.92;24.92;;;19.90;99.90;;;;;;5012241;28;20026;-73
2023/06/16 05:20:25;;;;;;;43.80;27.48;;;19.90;99.90;;;;;;5011938;28;20033;-72
2023/06/16 05:22:51;;;;;;;36.83;27.95;;;19.80;99.90;;;;;;5012354;28;20033;-73
2023/06/16 05:25:17;;;;;;;42.20;27.83;;;19.80;99.90;;;;;;5027115;28;20026;-73
2023/06/16 05:27:43;;;;;;;45.65;26.90;;;19.90;99.90;;;;;;5012283;28;20029;-72
2023/06/16 05:30:10;;;;;;;35.05;27.17;;;19.90;99.90;;;;;;5011344;28;20052;-72
2023/06/16 05:32:36;;;;;;;34.72;27.38;;;19.90;99.90;;;;;;5012150;28;20038;-72
2023/06/16 05:35:02;;;;;;;39.00;26.98;;;19.90;99.90;;;;;;5027480;28;20044;-73
2023/06/16 05:37:29;;;;;;;36.90;27.85;;;19.90;99.90;;;;;;5012122;28;20056;-72
2023/06/16 05:39:55;;;;;;;37.50;27.58;;;19.90;99.90;;;;;;5011981;28;20050;-73
2023/06/16 05:42:21;;;;;;;38.20;27.30;;;19.80;99.90;;;;;;5012275;28;20038;-73
2023/06/16 05:44:47;;;;;;;37.67;27.40;;;19.80;99.90;;;;;;5015586;28;20030;-72
2023/06/16 05:47:13;;;;;;;35.75;26.27;;;19.80;99.90;;;;;;5015037;28;20044;-73
2023/06/16 05:49:39;;;;;;;36.65;27.48;;;19.90;99.90;;;;;;5015835;28;20506;-72
2023/06/16 05:52:06;;;;;;;37.85;28.77;;;19.90;99.90;;;;;;5015550;28;20038;-73
2023/06/16 05:54:32;;;;;;;39.63;29.02;;;20.00;99.90;;;;;;5015904;28;20037;-72
2023/06/16 05:56:59;;;;;;;46.88;28.92;;;20.00;99.90;;;;;;5030857;28;20387;-72
2023/06/16 05:59:25;;;;;;;37.65;28.50;;;20.00;99.90;;;;;;5015409;28;20038;-72
2023/06/16 06:01:52;;;;;;;32.92;27.35;;;20.00;99.90;;;;;;5029961;28;20113;-73
2023/06/16 06:04:27;;;;;;;37.78;27.33;;;20.00;99.90;;;;;;5030783;28;20040;-73
2023/06/16 06:06:53;;;;;;;38.28;28.02;;;20.00;99.90;;;;;;5021435;28;20042;-73
2023/06/16 06:09:19;;;;;;;37.75;27.73;;;20.00;99.90;;;;;;5027538;28;20026;-73
2023/06/16 06:11:46;;;;;;;39.75;27.55;;;20.00;99.90;;;;;;5030129;28;20064;-73
2023/06/16 06:14:12;;;;;;;37.40;28.40;;;20.10;99.90;;;;;;5013750;28;20034;-72
2023/06/16 06:16:38;;;;;;;38.55;28.42;;;20.00;99.90;;;;;;5029998;28;20045;-73
2023/06/16 06:19:04;;;;;;;40.88;28.85;;;19.90;99.90;;;;;;5030436;28;20022;-72
2023/06/16 06:21:31;;;;;;;39.00;30.27;;;19.90;99.90;;;;;;5030233;28;20123;-73
2023/06/16 06:23:57;;;;;;;40.85;29.00;;;20.00;99.90;;;;;;5030533;28;20387;-73
2023/06/16 06:26:23;;;;;;;41.53;29.02;;;20.00;99.90;;;;;;5014544;28;20037;-73
2023/06/16 06:28:49;;;;;;;38.95;28.27;;;20.00;99.90;;;;;;5015350;28;20383;-73
2023/06/16 06:31:15;;;;;;;40.72;30.20;;;20.10;99.90;;;;;;5014232;28;20037;-73
2023/06/16 06:33:41;;;;;;;37.55;30.58;;;20.10;99.90;;;;;;5015042;28;20034;-73
2023/06/16 06:36:09;;;;;;;38.13;29.92;;;20.10;99.90;;;;;;5014617;28;20033;-72
2023/06/16 06:38:36;;;;;;;39.22;29.05;;;20.10;99.90;;;;;;5014906;28;20030;-72
2023/06/16 06:41:02;;;;;;;42.60;29.88;;;20.20;99.90;;;;;;5014274;28;20069;-72
2023/06/16 06:43:28;;;;;;;36.80;27.98;;;20.10;99.90;;;;;;5014779;28;20034;-72
2023/06/16 06:45:54;;;;;;;38.05;27.65;;;20.10;99.90;;;;;;5029343;28;20399;-73
2023/06/16 06:48:20;;;;;;;36.08;27.35;;;20.10;99.90;;;;;;5029919;28;20045;-73
2023/06/16 06:50:49;;;;;;;35.47;26.38;;;20.10;99.90;;;;;;5014191;28;20048;-73
2023/06/16 06:53:15;;;;;;;33.65;26.77;;;20.10;99.90;;;;;;5029818;28;20037;-73
2023/06/16 06:55:41;;;;;;;33.17;27.77;;;20.20;99.90;;;;;;5013294;28;20030;-73
2023/06/16 06:58:07;;;;;;;36.15;28.27;;;20.20;99.90;;;;;;5013241;28;20034;-73
2023/06/16 07:00:33;;;;;;;37.50;28.65;;;20.20;99.90;;;;;;5029049;28;20038;-73
2023/06/16 07:02:59;;;;;;;36.40;28.67;;;20.30;99.90;;;;;;5014458;28;20037;-73
2023/06/16 07:05:25;;;;;;;39.85;30.65;;;20.40;99.90;;;;;;5014061;28;20045;-73
2023/06/16 07:07:51;;;;;;;37.53;28.05;;;20.30;99.90;;;;;;5014427;28;20045;-73
2023/06/16 07:10:18;;;;;;;45.63;32.65;;;20.40;99.90;;;;;;5013871;28;20403;-72
2023/06/16 07:12:44;;;;;;;40.53;30.98;;;20.40;99.90;;;;;;5029524;28;20391;-72
2023/06/16 07:15:10;;;;;;;42.30;32.45;;;20.40;99.90;;;;;;5028755;28;20421;-72
2023/06/16 07:17:37;;;;;;;42.17;32.72;;;20.40;99.90;;;;;;4994778;28;20037;-73
2023/06/16 07:20:04;;;;;;;40.38;31.50;;;20.50;99.90;;;;;;4994525;28;20436;-73
2023/06/16 07:22:30;;;;;;;40.33;32.08;;;20.50;99.90;;;;;;5013187;28;20498;-73
2023/06/16 07:24:56;;;;;;;46.30;33.83;;;20.60;99.90;;;;;;5029001;28;20037;-73
2023/06/16 07:27:22;;;;;;;47.05;34.28;;;20.70;99.90;;;;;;5013740;28;20498;-73
2023/06/16 07:29:48;;;;;;;49.00;34.92;;;20.60;99.90;;;;;;5029350;28;20038;-73
2023/06/16 07:32:14;;;;;;;46.75;36.00;;;20.50;99.90;;;;;;5013412;28;20026;-73
2023/06/16 07:34:41;;;;;;;45.17;33.92;;;20.60;99.90;;;;;;5013830;28;20060;-72
2023/06/16 07:37:08;;;;;;;48.40;34.65;;;20.70;99.90;;;;;;5028626;28;20026;-73
2023/06/16 07:39:34;;;;;;;45.22;35.05;;;20.80;99.90;;;;;;5028642;28;20050;-73
2023/06/16 07:42:01;;;;;;;52.10;37.38;;;20.70;99.90;;;;;;5013376;28;20042;-73
2023/06/16 07:44:27;;;;;;;49.33;37.88;;;20.80;99.90;;;;;;5028891;28;20037;-73
2023/06/16 07:46:53;;;;;;;48.83;35.50;;;20.80;99.90;;;;;;5012953;28;20034;-73
2023/06/16 07:49:19;;;;;;;48.80;35.75;;;20.90;99.90;;;;;;5013514;28;20041;-73
2023/06/16 07:51:45;;;;;;;52.25;37.58;;;20.90;99.90;;;;;;5012260;28;20100;-72
2023/06/16 07:54:11;;;;;;;46.60;36.60;;;21.00;99.90;;;;;;5028569;28;20026;-73
2023/06/16 07:56:38;;;;;;;48.70;37.25;;;21.00;99.90;;;;;;5013128;28;20032;-73
2023/06/16 07:59:06;;;;;;;47.30;37.03;;;21.00;99.90;;;;;;5028602;28;20053;-73
2023/06/16 08:01:32;;;;;;;45.90;36.38;;;21.10;99.90;;;;;;5027272;28;20038;-74
2023/06/16 08:03:58;;;;;;;50.42;38.17;;;21.10;99.90;;;;;;5013272;28;20459;-73
2023/06/16 08:06:25;;;;;;;49.10;37.08;;;21.00;99.90;;;;;;5012139;28;20034;-72
2023/06/16 08:08:52;;;;;;;46.58;36.22;;;20.90;99.90;;;;;;5012964;28;20022;-73
2023/06/16 08:11:19;;;;;;;46.60;36.33;;;20.90;99.90;;;;;;5012961;28;20037;-73
2023/06/16 08:13:45;;;;;;;43.58;34.65;;;20.90;99.90;;;;;;5013132;28;20482;-72
2023/06/16 08:16:12;;;;;;;41.88;33.40;;;20.80;99.90;;;;;;5012502;28;20042;-72
2023/06/16 08:18:38;;;;;;;45.60;34.50;;;20.80;99.90;;;;;;5013119;28;20026;-73
2023/06/16 08:21:06;;;;;;;46.50;35.95;;;20.80;99.90;;;;;;5012588;28;20037;-73
2023/06/16 08:23:32;;;;;;;44.33;36.08;;;20.90;99.90;;;;;;5027774;28;20037;-73
2023/06/16 08:25:59;;;;;;;45.72;36.33;;;21.10;99.90;;;;;;5027892;28;20475;-73
2023/06/16 08:28:26;;;;;;;45.40;36.47;;;21.20;99.90;;;;;;5028157;28;20037;-72
2023/06/16 08:30:52;;;;;;;44.85;35.92;;;21.30;99.90;;;;;;5012323;28;20042;-73
2023/06/16 08:33:19;;;;;;;44.70;35.92;;;21.30;99.90;;;;;;5027989;28;20036;-73
2023/06/16 08:35:46;;;;;;;41.63;32.53;;;21.40;99.90;;;;;;5012465;28;20022;-72
2023/06/16 08:38:12;;;;;;;38.92;32.45;;;21.40;99.90;;;;;;5027800;28;20473;-72
2023/06/16 08:40:38;;;;;;;38.65;31.63;;;21.60;99.90;;;;;;5012422;28;20034;-73
2023/06/16 08:43:05;;;;;;;39.53;33.20;;;21.40;99.90;;;;;;5027909;28;20360;-72
2023/06/16 08:45:31;;;;;;;39.10;31.90;;;21.30;99.90;;;;;;5027379;28;20105;-73
2023/06/16 08:47:58;;;;;;;39.67;33.47;;;21.50;99.90;;;;;;5016857;28;20034;-72
2023/06/16 08:50:24;;;;;;;39.03;32.22;;;21.60;99.90;;;;;;5011253;28;20030;-73
2023/06/16 08:52:52;;;;;;;36.08;30.40;;;21.60;99.90;;;;;;5012192;28;20364;-73
2023/06/16 08:55:19;;;;;;;35.42;31.38;;;21.60;99.90;;;;;;5027398;28;20038;-73
2023/06/16 08:57:50;;;;;;;37.28;30.85;;;21.80;99.90;;;;;;5011509;28;20049;-73
2023/06/16 09:00:17;;;;;;;;;;;21.80;99.90;;;;;;5027704;28;20037;-73
2023/06/16 09:02:48;;;;;;;34.97;28.33;;;21.80;99.90;;;;;;5027527;28;19920;-74
2023/06/16 09:05:16;;;;;;;33.75;29.70;;;21.90;99.90;;;;;;5026743;28;20026;-73
2023/06/16 09:07:43;;;;;;;29.50;26.30;;;22.00;99.90;;;;;;5026915;28;20046;-73
2023/06/16 09:10:10;;;;;;;34.88;27.95;;;22.20;99.90;;;;;;5012497;28;20018;-73
2023/06/16 09:12:36;;;;;;;33.15;29.05;;;22.30;99.90;;;;;;4992639;28;20030;-73
2023/06/16 09:15:10;;;;;;;32.88;26.90;;;22.30;99.90;;;;;;4991631;28;20023;-72
2023/06/16 09:17:37;;;;;;;34.05;27.20;;;22.50;99.90;;;;;;5012256;28;20491;-73
2023/06/16 09:20:06;;;;;;;34.58;26.92;;;22.70;99.90;;;;;;5030931;28;20045;-73
2023/06/16 09:22:32;;;;;;;31.98;26.00;;;22.80;99.90;;;;;;5030771;28;20033;-72
2023/06/16 09:25:00;;;;;;;32.97;28.55;;;22.90;99.90;;;;;;5016343;28;20494;-73
2023/06/16 09:27:45;;;;;;;32.05;25.92;;;23.00;99.90;;;;;;5031201;28;20030;-73
2023/06/16 09:30:13;;;;;;;28.67;23.92;;;23.10;99.90;;;;;;5015480;28;20029;-72
2023/06/16 09:32:40;;;;;;;33.10;26.13;;;23.40;99.90;;;;;;5031215;28;20026;-73
2023/06/16 09:35:23;;;;;;;34.25;27.63;;;23.60;99.90;;;;;;5031167;28;20363;-73
2023/06/16 09:37:52;;;;;;;30.30;27.00;;;23.70;99.90;;;;;;4992002;28;20047;-72
2023/06/16 09:40:24;;;;;;;32.97;27.45;;;23.70;99.90;;;;;;4978010;28;20447;-73
2023/06/16 09:42:50;;;;;;;30.55;26.00;;;23.80;99.90;;;;;;5030844;28;20026;-73
2023/06/16 09:45:17;;;;;;;30.05;24.45;;;23.80;99.90;;;;;;5030418;28;20029;-73
2023/06/16 09:47:47;;;;;;;28.77;25.58;;;23.80;99.90;;;;;;5024046;28;20030;-73
2023/06/16 09:50:25;;;;;;;28.38;25.20;;;24.00;99.90;;;;;;4996186;28;20038;-73
2023/06/16 09:52:53;;;;;;;32.78;24.98;;;24.20;99.90;;;;;;5030727;28;20082;-72
2023/06/16 09:55:19;;;;;;;28.83;24.50;;;24.40;99.90;;;;;;5015468;28;20033;-73
2023/06/16 09:57:45;;;;;;;27.00;24.17;;;24.60;99.90;;;;;;5031128;28;20036;-72
2023/06/16 10:00:16;;;;;;;28.30;24.02;;;24.70;99.90;;;;;;5029952;28;20048;-73
2023/06/16 10:02:46;;;;;;;25.88;23.05;;;24.90;99.90;;;;;;5015423;28;20022;-74
2023/06/16 10:05:14;;;;;;;29.25;23.52;;;25.00;99.90;;;;;;5030283;28;20038;-73
2023/06/16 10:07:42;;;;;;;27.98;23.42;;;25.20;99.90;;;;;;5030862;28;20026;-73
2023/06/16 10:10:10;;;;;;;26.65;22.88;;;25.30;99.90;;;;;;5015630;28;20041;-73
2023/06/16 10:12:36;;;;;;;25.48;21.75;;;25.20;99.90;;;;;;4976504;28;20031;-73
2023/06/16 10:15:03;;;;;;;24.52;21.98;;;25.20;99.90;;;;;;4975063;28;20037;-69
2023/06/16 10:17:32;;;;;;;24.88;22.35;;;25.30;99.90;;;;;;5013269;28;20037;-73
2023/06/16 10:19:58;;;;;;;29.13;21.55;;;25.40;99.90;;;;;;5030114;28;20049;-73
2023/06/16 10:22:25;;;;;;;25.00;21.58;;;25.60;99.90;;;;;;5030232;28;20471;-73
2023/06/16 10:24:51;;;;;;;25.60;20.50;;;25.60;99.90;;;;;;5030548;28;20037;-73
2023/06/16 10:27:17;;;;;;;25.10;22.40;;;25.60;99.90;;;;;;5030250;28;20026;-73
2023/06/16 10:29:46;;;;;;;27.83;22.25;;;25.70;99.90;;;;;;5029332;28;20036;-73
2023/06/16 10:32:12;;;;;;;20.90;18.50;;;25.90;99.90;;;;;;5029382;28;20057;-73
2023/06/16 10:34:56;;;;;;;20.02;17.77;;;26.10;99.90;;;;;;5030013;28;20030;-73
2023/06/16 10:37:23;;;;;;;22.52;20.05;;;26.40;99.90;;;;;;5028438;28;20037;-72
2023/06/16 10:39:49;;;;;;;22.73;19.00;;;26.60;99.90;;;;;;5030143;28;20022;-73
2023/06/16 10:42:16;;;;;;;22.92;19.92;;;26.50;99.90;;;;;;5029899;28;20398;-73
2023/06/16 10:44:43;;;;;;;24.00;17.98;;;26.70;99.90;;;;;;5030016;28;20038;-73
2023/06/16 10:47:12;;;;;;;21.33;18.90;;;26.80;99.90;;;;;;5014231;28;20038;-73
2023/06/16 10:49:44;;;;;;;21.85;17.60;;;26.90;99.90;;;;;;5014642;28;20042;-73
2023/06/16 10:52:15;;;;;;;19.63;16.67;;;27.00;99.90;;;;;;5014425;28;20060;-73
2023/06/16 10:54:45;;;;;;;19.90;17.80;;;26.90;99.90;;;;;;5029587;28;20036;-73
2023/06/16 10:57:12;;;;;;;21.58;18.10;;;27.00;99.90;;;;;;5029147;28;20050;-73
2023/06/16 11:00:11;;;;;;;18.75;16.67;;;26.90;99.90;;;;;;5029836;28;20041;-74
2023/06/16 11:02:38;;;;;;;19.00;16.73;;;26.80;99.90;;;;;;4993549;28;20039;-73
2023/06/16 11:05:07;;;;;;;19.80;17.17;;;26.90;99.90;;;;;;4977683;28;20034;-72
2023/06/16 11:07:57;;;;;;;21.85;17.30;;;27.00;99.90;;;;;;4994627;28;20038;-73
2023/06/16 11:10:24;;;;;;;18.15;14.90;;;27.10;99.90;;;;;;4991797;28;20039;-73
2023/06/16 11:12:50;;;;;;;16.48;14.48;;;27.20;99.90;;;;;;4993646;28;20480;-73
2023/06/16 11:15:18;;;;;;;17.25;15.45;;;27.30;99.90;;;;;;4994740;28;20042;-73
2023/06/16 11:17:47;;;;;;;22.52;16.50;;;27.30;99.90;;;;;;5029242;28;20502;-73
2023/06/16 11:20:13;;;;;;;17.42;15.63;;;27.10;99.90;;;;;;5028885;28;20057;-74
2023/06/16 11:22:39;;;;;;;18.65;16.25;;;27.00;99.90;;;;;;5029469;28;20026;-73
2023/06/16 11:25:07;;;;;;;17.30;15.50;;;26.90;99.90;;;;;;5029485;28;20034;-73
2023/06/16 11:27:33;;;;;;;19.73;15.30;;;26.90;99.90;;;;;;5029007;28;20041;-73
2023/06/16 11:30:01;;;;;;;18.20;14.40;;;26.80;99.90;;;;;;5029445;28;20033;-73
2023/06/16 11:32:28;;;;;;;16.92;15.23;;;26.90;99.90;;;;;;5027880;28;20042;-73
2023/06/16 11:34:57;;;;;;;16.33;14.63;;;26.90;99.90;;;;;;5029242;28;20048;-73
2023/06/16 11:37:40;;;;;;;16.88;15.25;;;27.10;99.90;;;;;;5028866;28;20030;-73
2023/06/16 11:40:07;;;;;;;18.67;15.05;;;27.30;99.90;;;;;;5028840;28;20021;-73
2023/06/16 11:42:33;;;;;;;14.60;12.95;;;27.40;99.90;;;;;;5028689;28;20642;-73
2023/06/16 11:44:59;;;;;;;16.38;14.32;;;27.60;99.90;;;;;;5029122;28;20026;-74
2023/06/16 11:47:25;;;;;;;21.13;15.90;;;27.80;99.90;;;;;;5027795;28;20037;-73
2023/06/16 11:49:52;;;;;;;16.15;14.45;;;27.70;99.90;;;;;;5012057;28;20510;-74
2023/06/16 11:52:18;;;;;;;16.10;14.60;;;27.80;99.90;;;;;;5013398;28;20030;-73
2023/06/16 11:54:44;;;;;;;18.05;15.02;;;27.90;99.90;;;;;;5028837;28;20041;-73
2023/06/16 11:57:10;;;;;;;17.65;15.07;;;28.00;99.90;;;;;;5013349;28;20030;-73
2023/06/16 11:59:36;;;;;;;16.85;15.20;;;27.90;99.90;;;;;;5013218;28;20034;-74
2023/06/16 12:02:03;;;;;;;18.60;14.57;;;27.90;99.90;;;;;;5027404;28;20527;-73
2023/06/16 12:04:31;;;;;;;16.38;14.77;;;27.70;99.90;;;;;;5028715;28;20030;-73
2023/06/16 12:06:57;;;;;;;16.65;14.93;;;27.60;99.90;;;;;;5013304;28;20036;-73
2023/06/16 12:09:24;;;;;;;17.20;14.95;;;27.50;99.90;;;;;;5028553;28;20486;-73
2023/06/16 12:11:51;;;;;;;17.05;14.90;;;27.50;99.90;;;;;;5012958;28;20029;-73
2023/06/16 12:14:21;;;;;;;15.52;13.60;;;27.70;99.90;;;;;;5028257;28;20033;-73
2023/06/16 12:16:53;;;;;;;18.23;14.40;;;27.80;99.90;;;;;;5027563;28;20034;-73
2023/06/16 12:19:20;;;;;;;19.08;14.68;;;28.00;99.90;;;;;;5028130;28;20033;-73
2023/06/16 12:21:56;;;;;;;14.88;13.48;;;28.10;99.90;;;;;;5011248;28;20049;-73
2023/06/16 12:24:22;;;;;;;15.85;14.05;;;28.20;99.90;;;;;;5027946;28;20026;-73
2023/06/16 12:26:51;;;;;;;16.48;14.52;;;28.40;99.90;;;;;;5027946;28;20030;-73
2023/06/16 12:29:18;;;;;;;17.30;15.70;;;28.50;99.90;;;;;;5027653;28;20375;-73